Terminal Aerodrome Forecast
Issued by NWS Wilmington, OH

Current Version | Previous Version | Graphics & Text | Print | Product List | Glossary On
Versions: 1 2 3 4 5 6 7 8 9 10 11 12 13 14 15 16 17 18
000
FTUS41 KILN 200546
TAFILN
TAF
KILN 200546Z 2006/2106 14005KT P6SM BKN250
     FM201200 17006KT P6SM VCSH BKN090
     FM201400 18007KT 6SM -SHRA VCTS OVC050CB
     FM201700 18011KT P6SM BKN060
     FM202300 18009KT 3SM -SHRA OVC040
     FM210100 19006KT 3SM -SHRA BR OVC020
     FM210300 27005KT P6SM OVC012
     FM210500 34004KT P6SM OVC009=

USA.gov is the U.S. government's official web portal to all federal, state and local government web resources and services.